ZSPD Airport Information

Runway Information
Runway 16 Length 12467 ft width 197 ft
Elevation 13 ft Threshold 0 ft Heading 162
Runway 34 Length 12467 ft Width 197 ft
Elevation 13 ft Threshold 0 ft Heading 342
Runway 17 Length 13123 ft width 197 ft
Elevation 10 ft Threshold 0 ft Heading 162
Runway 35 Length 13123 ft Width 197 ft
Elevation 10 ft Threshold 0 ft Heading 342
Airport Frequencies
Type APP Name SHANGHAI A Frequency 119.75 MHZ
Type APP Name SHANGHAI A Frequency 120.3 MHZ
Type APP Name SHAINGHAI Frequency 121.3 MHZ
Type APP Name SHANGHAI A Frequency 123.8 MHZ
Type ATIS Name ATIS Frequency 127.85 MHZ
Type CLD Name DEL Frequency 121.95 MHZ
Type GND Name GND WEST Frequency 121.65 MHZ
Type GND Name GND EAST Frequency 121.8 MHZ
Type TWR Name TWR EAST Frequency 118.4 MHZ
Type TWR Name TWR WEST Frequency 118.8 MHZ
Airport Navaids
Type VOR-DME Name Hengsha Frequency 114400 KHZ
Type VOR-DME Name Nanhui Frequency 114600 KHZ
Type VOR-DME Name Liuzao Frequency 109400 KHZ
Type VOR-DME Name Pudong Frequency 116900 KHZ
Type VOR-DME Name Shuyuan Frequency 113600 KHZ
Airport Weather Information & NOTAM

Deprecated: The each() function is deprecated. This message will be suppressed on further calls in /home/aerocargo/public_html/lib/functions.php on line 165
ADDS - METARS form results

(0158 UTC 14 April 2021)
Data provider http://aviationweather.gov/metar/data/
 
METAR text: ZSPD 140130Z 05006MPS 020V080 CAVOK 13/03 Q1024 NOSIG
Conditions at: ZSPD (SHANGHAI/PUDONG , CN) observed 0130 UTC 14 April 2021
Temperature: 13.0°C (55°F)
Dewpoint: 3.0°C (37°F) [RH = 51%]
Pressure (altimeter): 30.24 inches Hg (1024.0 mb)
Winds: from the NE (50 degrees) at 14 MPH (12 knots; 6.2 m/s)
Visibility: 6 or more miles (10+ km)
Ceiling: ceiling and visibility are OK
Clouds: unknown
Weather: no significant weather observed at this time

METAR text: ZSPD 140100Z 05006G11MPS 360V070 CAVOK 13/04 Q1023 NOSIG
Conditions at: ZSPD (SHANGHAI/PUDONG , CN) observed 0100 UTC 14 April 2021
Temperature: 13.0°C (55°F)
Dewpoint: 4.0°C (39°F) [RH = 54%]
Pressure (altimeter): 30.21 inches Hg (1023.0 mb)
Winds: from the NE (50 degrees) at 14 MPH (12 knots; 6.2 m/s)
gusting to 24 MPH (21 knots; 10.8 m/s)
Visibility: 6 or more miles (10+ km)
Ceiling: ceiling and visibility are OK
Clouds: unknown
Weather: no significant weather observed at this time

Forecast for: ZSPD (SHANGHAI/PUDONG , CN)
Text: TAF ZSPD 132101Z 1400/1424 06004MPS 6000 BKN015 TX18/1405Z TN11/1420Z
Forecast period: 0000 UTC 14 April 2021 to 0000 UTC 15 April 2021
Forecast type: FROM: standard forecast or significant change
Winds: from the ENE (60 degrees) at 9 MPH (8 knots; 4.1 m/s)
Visibility: 4 miles (6 km)
Ceiling: 1500 feet AGL
Clouds: broken clouds at 1500 feet AGL
Weather: no significant weather forecast for this period